createdAt,value
2023-04-08T00:00:08.190Z,9.82
2023-04-08T00:02:39.209Z,9.94
2023-04-08T00:05:13.501Z,9.75
2023-04-08T00:07:44.163Z,9.78
2023-04-08T00:10:14.945Z,9.82
2023-04-08T00:12:47.003Z,9.61
2023-04-08T00:15:16.460Z,9.74
2023-04-08T00:17:47.297Z,9.80
2023-04-08T00:20:18.228Z,9.87
2023-04-08T00:22:51.079Z,10.05
2023-04-08T00:25:23.472Z,9.98
2023-04-08T00:27:55.529Z,9.96
2023-04-08T00:30:31.601Z,9.68
2023-04-08T00:33:02.675Z,10.09
2023-04-08T00:35:32.532Z,9.65
2023-04-08T00:38:03.557Z,9.12
2023-04-08T00:40:34.101Z,10.04
2023-04-08T00:43:04.928Z,10.07
2023-04-08T00:45:34.842Z,9.85
2023-04-08T00:48:07.365Z,10.10
2023-04-08T00:50:37.650Z,10.04
2023-04-08T00:53:08.322Z,9.76
2023-04-08T00:55:45.971Z,9.81
2023-04-08T00:58:17.000Z,10.01
2023-04-08T01:00:52.201Z,10.12
2023-04-08T01:03:23.056Z,10.15
2023-04-08T01:06:27.186Z,10.03
2023-04-08T01:09:04.828Z,10.07
2023-04-08T01:11:38.377Z,10.10
2023-04-08T01:14:09.416Z,9.90
2023-04-08T01:16:43.437Z,10.11
2023-04-08T01:19:32.634Z,10.11
2023-04-08T01:22:47.887Z,9.99
2023-04-08T01:25:20.704Z,10.01
2023-04-08T01:27:52.494Z,10.00
2023-04-08T01:30:24.514Z,10.04
2023-04-08T01:32:56.109Z,9.97
2023-04-08T01:35:27.734Z,10.00
2023-04-08T01:37:59.920Z,9.58
2023-04-08T01:40:32.372Z,9.92
2023-04-08T01:43:07.780Z,9.95
2023-04-08T01:45:39.824Z,9.86
2023-04-08T01:48:12.151Z,9.50
2023-04-08T01:50:47.033Z,9.89
2023-04-08T01:53:16.934Z,9.80
2023-04-08T01:55:52.741Z,9.78
2023-04-08T01:58:22.632Z,10.03
2023-04-08T02:00:54.229Z,10.09
2023-04-08T02:03:25.098Z,10.20
2023-04-08T02:05:54.716Z,10.11
2023-04-08T02:08:25.436Z,10.06
2023-04-08T02:10:55.382Z,8.88
2023-04-08T02:13:26.030Z,8.98
2023-04-08T02:16:05.934Z,9.20
2023-04-08T02:18:34.773Z,9.86
2023-04-08T02:21:08.762Z,9.95
2023-04-08T02:23:38.031Z,10.21
2023-04-08T02:26:08.022Z,10.25
2023-04-08T02:28:36.155Z,10.37
2023-04-08T02:31:14.383Z,9.15
2023-04-08T02:33:42.776Z,10.24
2023-04-08T02:36:15.005Z,10.03
2023-04-08T02:38:48.664Z,10.38
2023-04-08T02:41:23.034Z,10.06
2023-04-08T02:43:51.126Z,10.33
2023-04-08T02:46:17.417Z,10.14
2023-04-08T02:48:45.313Z,9.96
2023-04-08T02:51:17.837Z,10.13
2023-04-08T02:53:48.780Z,10.40
2023-04-08T02:56:19.280Z,10.40
2023-04-08T02:58:52.833Z,10.19
2023-04-08T03:01:24.081Z,9.93
2023-04-08T03:03:54.599Z,9.62
2023-04-08T03:06:25.130Z,10.07
2023-04-08T03:08:55.856Z,9.94
2023-04-08T03:11:26.773Z,9.97
2023-04-08T03:13:57.894Z,10.01
2023-04-08T03:16:31.891Z,10.20
2023-04-08T03:19:02.518Z,10.13
2023-04-08T03:21:33.450Z,10.07
2023-04-08T03:24:04.261Z,9.55
2023-04-08T03:26:34.730Z,10.17
2023-04-08T03:29:06.191Z,10.30
2023-04-08T03:31:35.422Z,10.47
2023-04-08T03:34:09.218Z,10.24
2023-04-08T03:36:39.580Z,10.16
2023-04-08T03:39:09.726Z,10.37
2023-04-08T03:41:40.209Z,10.29
2023-04-08T03:44:10.638Z,10.28
2023-04-08T03:46:41.012Z,10.32
2023-04-08T03:49:11.443Z,9.38
2023-04-08T03:51:45.469Z,10.18
2023-04-08T03:54:15.746Z,10.09
2023-04-08T03:56:45.898Z,10.19
2023-04-08T03:59:16.474Z,10.23
2023-04-08T04:01:47.022Z,10.24
2023-04-08T04:04:17.786Z,8.82
2023-04-08T04:06:48.470Z,9.90
2023-04-08T04:09:22.834Z,10.20
2023-04-08T04:11:53.045Z,9.96
2023-04-08T04:14:23.310Z,10.22
2023-04-08T04:16:53.751Z,9.62
2023-04-08T04:19:24.356Z,10.19
2023-04-08T04:21:55.058Z,10.22
2023-04-08T04:24:25.563Z,9.69
2023-04-08T04:26:59.235Z,10.05
2023-04-08T04:29:31.182Z,10.32
2023-04-08T04:32:00.156Z,10.11
2023-04-08T04:34:30.398Z,9.80
2023-04-08T04:37:01.851Z,9.82
2023-04-08T04:39:31.678Z,9.29
2023-04-08T04:42:02.879Z,9.98
2023-04-08T04:44:34.772Z,9.93
2023-04-08T04:47:06.107Z,9.80
2023-04-08T04:49:36.643Z,9.77
2023-04-08T04:52:10.937Z,9.53
2023-04-08T04:54:41.408Z,9.27
2023-04-08T04:57:12.539Z,9.29
2023-04-08T04:59:44.090Z,9.14
2023-04-08T05:02:15.826Z,9.53
2023-04-08T05:04:46.279Z,9.41
2023-04-08T05:07:16.491Z,8.94
2023-04-08T05:09:50.285Z,9.77
2023-04-08T05:12:21.232Z,9.86
2023-04-08T05:14:51.614Z,8.48
2023-04-08T05:17:22.833Z,9.69
2023-04-08T05:19:53.447Z,9.64
2023-04-08T05:22:24.795Z,9.88
2023-04-08T05:24:56.081Z,9.38
2023-04-08T05:27:29.075Z,9.18
2023-04-08T05:29:59.576Z,9.43
2023-04-08T05:32:29.809Z,8.27
2023-04-08T05:35:04.100Z,8.98
2023-04-08T05:37:35.746Z,9.20
2023-04-08T05:40:06.823Z,5.80
2023-04-08T05:42:37.195Z,9.86
2023-04-08T05:45:09.638Z,9.79
2023-04-08T05:47:38.517Z,9.98
2023-04-08T05:50:09.253Z,9.79
2023-04-08T05:52:44.728Z,9.72
2023-04-08T05:55:14.898Z,9.77
2023-04-08T05:57:45.298Z,9.49
2023-04-08T06:00:19.379Z,9.53
2023-04-08T06:02:49.361Z,9.85
2023-04-08T06:05:20.612Z,9.92
2023-04-08T06:07:51.771Z,9.65
2023-04-08T06:10:22.362Z,9.88
2023-04-08T06:12:52.719Z,9.76
2023-04-08T06:15:23.188Z,9.63
2023-04-08T06:17:58.419Z,9.65
2023-04-08T06:20:29.438Z,9.55
2023-04-08T06:22:59.469Z,9.00
2023-04-08T06:25:42.607Z,8.90
2023-04-08T06:28:12.128Z,9.52
2023-04-08T06:30:42.888Z,9.76
2023-04-08T06:33:12.955Z,9.81
2023-04-08T06:35:43.838Z,9.95
2023-04-08T06:38:13.970Z,9.72
2023-04-08T06:40:44.647Z,9.76
2023-04-08T06:43:18.351Z,9.28
2023-04-08T06:45:49.336Z,7.71
2023-04-08T06:48:19.071Z,9.00
2023-04-08T06:50:49.848Z,9.76
2023-04-08T06:53:20.744Z,9.67
2023-04-08T06:55:51.655Z,9.83
2023-04-08T06:58:21.147Z,9.67
2023-04-08T07:00:56.746Z,9.70
2023-04-08T07:03:26.542Z,9.57
2023-04-08T07:05:57.179Z,9.11
2023-04-08T07:08:27.910Z,9.56
2023-04-08T07:10:58.329Z,9.20
2023-04-08T07:13:28.814Z,9.77
2023-04-08T07:15:59.632Z,9.33
2023-04-08T07:18:33.555Z,9.49
2023-04-08T07:21:04.143Z,9.80
2023-04-08T07:23:34.703Z,9.38
2023-04-08T07:26:05.866Z,9.03
2023-04-08T07:28:36.651Z,9.53
2023-04-08T07:31:16.393Z,9.72
2023-04-08T07:33:43.737Z,9.98
2023-04-08T07:36:14.614Z,9.17
2023-04-08T07:38:44.788Z,9.06
2023-04-08T07:41:15.300Z,10.00
2023-04-08T07:43:49.168Z,10.17
2023-04-08T07:46:20.532Z,9.86
2023-04-08T07:48:52.124Z,9.78
2023-04-08T07:51:22.436Z,9.05
2023-04-08T07:53:53.088Z,9.70
2023-04-08T07:56:23.052Z,8.90
2023-04-08T07:58:54.008Z,8.74
2023-04-08T08:01:30.453Z,9.39
2023-04-08T08:03:58.878Z,9.21
2023-04-08T08:06:31.681Z,9.43
2023-04-08T08:09:00.531Z,9.48
2023-04-08T08:11:30.577Z,9.39
2023-04-08T08:14:01.492Z,9.16
2023-04-08T08:16:33.021Z,9.34
2023-04-08T08:19:08.080Z,10.10
2023-04-08T08:21:37.175Z,9.47
2023-04-08T08:24:07.518Z,10.22
2023-04-08T08:26:38.081Z,10.44
2023-04-08T08:29:08.559Z,9.70
2023-04-08T08:31:39.693Z,10.28
2023-04-08T08:34:10.827Z,9.82
2023-04-08T08:36:47.096Z,8.45
2023-04-08T08:39:18.180Z,9.58
2023-04-08T08:41:50.089Z,9.26
2023-04-08T08:44:25.159Z,10.12
2023-04-08T08:46:55.279Z,9.62
2023-04-08T08:49:26.513Z,9.72
2023-04-08T08:51:58.002Z,9.98
2023-04-08T08:54:28.189Z,10.08
2023-04-08T08:56:59.316Z,10.37
2023-04-08T08:59:30.369Z,9.79
2023-04-08T09:02:23.304Z,9.75
2023-04-08T09:05:00.538Z,9.64
2023-04-08T09:07:36.668Z,10.24
2023-04-08T09:10:03.538Z,10.22
2023-04-08T09:12:30.665Z,5.28
2023-04-08T09:15:08.493Z,9.70
2023-04-08T09:17:38.872Z,8.95
2023-04-08T09:20:11.415Z,9.58
2023-04-08T09:22:57.534Z,9.83
2023-04-08T09:25:28.396Z,7.39
2023-04-08T09:27:54.934Z,8.29
2023-04-08T09:30:22.795Z,8.28
2023-04-08T09:32:57.000Z,9.35
2023-04-08T09:35:26.349Z,9.27
2023-04-08T09:37:57.011Z,9.55
2023-04-08T09:40:37.183Z,9.29
2023-04-08T09:43:08.806Z,9.27
2023-04-08T09:45:42.005Z,9.32
2023-04-08T09:48:24.309Z,9.08
2023-04-08T09:50:51.146Z,9.45
2023-04-08T09:53:37.321Z,9.12
2023-04-08T09:56:10.232Z,9.29
2023-04-08T09:58:49.009Z,9.79
2023-04-08T10:01:16.076Z,9.80
2023-04-08T10:03:55.089Z,9.75
2023-04-08T10:06:21.780Z,8.75
2023-04-08T10:08:48.090Z,9.17
2023-04-08T10:11:23.611Z,9.87
2023-04-08T10:13:55.449Z,9.36
2023-04-08T10:16:29.332Z,9.42
2023-04-08T10:19:01.964Z,9.85
2023-04-08T10:21:39.206Z,9.67
2023-04-08T10:24:07.275Z,9.63
2023-04-08T10:26:37.760Z,9.86
2023-04-08T10:29:17.896Z,9.57
2023-04-08T10:31:49.949Z,9.48
2023-04-08T10:34:23.985Z,8.93
2023-04-08T10:36:51.481Z,9.10
2023-04-08T10:39:21.838Z,9.55
2023-04-08T10:41:52.371Z,9.27
2023-04-08T10:44:30.081Z,8.79
2023-04-08T10:47:01.129Z,9.80
2023-04-08T10:49:33.362Z,8.61
2023-04-08T10:52:06.931Z,9.66
2023-04-08T10:54:37.786Z,10.52
2023-04-08T10:57:07.277Z,9.65
2023-04-08T10:59:39.139Z,9.84
2023-04-08T11:02:13.994Z,9.77
2023-04-08T11:04:43.931Z,9.49
2023-04-08T11:07:10.152Z,10.28
2023-04-08T11:09:43.735Z,9.47
2023-04-08T11:12:18.063Z,9.69
2023-04-08T11:14:51.957Z,9.83
2023-04-08T11:17:18.370Z,9.52
2023-04-08T11:19:45.895Z,9.78
2023-04-08T11:22:12.351Z,9.22
2023-04-08T11:24:38.808Z,9.59
2023-04-08T11:27:08.128Z,8.84
2023-04-08T11:29:39.272Z,9.61
2023-04-08T11:32:10.438Z,10.16
2023-04-08T11:34:41.560Z,9.51
2023-04-08T11:37:16.723Z,10.62
2023-04-08T11:39:47.608Z,9.98
2023-04-08T11:42:29.006Z,10.75
2023-04-08T11:45:00.446Z,9.53
2023-04-08T11:47:36.703Z,10.61
2023-04-08T11:50:03.497Z,10.71
2023-04-08T11:52:46.617Z,10.11
2023-04-08T11:55:22.868Z,10.18
2023-04-08T11:57:50.423Z,10.68
2023-04-08T12:00:27.275Z,10.68
2023-04-08T12:02:53.459Z,11.23
2023-04-08T12:05:20.873Z,11.64
2023-04-08T12:07:51.489Z,11.70
2023-04-08T12:10:24.446Z,10.90
2023-04-08T12:12:55.157Z,11.29
2023-04-08T12:15:26.063Z,11.48
2023-04-08T12:18:00.736Z,10.76
2023-04-08T12:20:31.421Z,10.99
2023-04-08T12:23:02.418Z,10.98
2023-04-08T12:25:37.894Z,11.36
2023-04-08T12:28:10.796Z,11.04
2023-04-08T12:30:40.867Z,11.51
2023-04-08T12:33:11.538Z,10.36
2023-04-08T12:35:42.967Z,11.49
2023-04-08T12:38:13.904Z,11.58
2023-04-08T12:40:44.650Z,11.24
2023-04-08T12:43:20.292Z,11.38
2023-04-08T12:45:50.497Z,11.11
2023-04-08T12:48:20.262Z,10.70
2023-04-08T12:50:50.333Z,10.33
2023-04-08T12:53:21.231Z,11.08
2023-04-08T12:55:56.283Z,11.19
2023-04-08T12:58:24.669Z,11.05
2023-04-08T13:00:54.213Z,8.46
2023-04-08T13:03:25.199Z,12.05
2023-04-08T13:05:56.215Z,11.97
2023-04-08T13:08:30.583Z,11.95
2023-04-08T13:11:01.550Z,11.92
2023-04-08T13:13:31.854Z,11.52
2023-04-08T13:16:03.412Z,11.31
2023-04-08T13:18:33.086Z,11.89
2023-04-08T13:21:03.776Z,11.77
2023-04-08T13:23:34.628Z,11.88
2023-04-08T13:26:08.814Z,12.10
2023-04-08T13:28:53.785Z,11.78
2023-04-08T13:31:23.081Z,12.03
2023-04-08T13:33:56.958Z,11.83
2023-04-08T13:36:24.360Z,12.41
2023-04-08T13:38:51.322Z,11.74
2023-04-08T13:41:18.180Z,11.82
2023-04-08T13:43:49.704Z,11.88
2023-04-08T13:46:19.222Z,12.08
2023-04-08T13:48:49.651Z,11.66
2023-04-08T13:51:21.284Z,12.63
2023-04-08T13:53:52.006Z,13.65
2023-04-08T13:56:22.640Z,13.01
2023-04-08T13:58:57.120Z,13.68
2023-04-08T14:01:24.809Z,14.03
2023-04-08T14:03:56.491Z,13.79
2023-04-08T14:06:28.081Z,13.25
2023-04-08T14:09:02.544Z,12.54
2023-04-08T14:11:33.267Z,14.07
2023-04-08T14:14:03.452Z,13.46
2023-04-08T14:16:35.274Z,14.29
2023-04-08T14:19:04.381Z,14.17
2023-04-08T14:21:34.743Z,14.01
2023-04-08T14:24:05.870Z,14.56
2023-04-08T14:26:40.151Z,13.66
2023-04-08T14:29:09.950Z,13.28
2023-04-08T14:31:40.534Z,14.45
2023-04-08T14:34:10.688Z,14.58
2023-04-08T14:36:41.026Z,14.81
2023-04-08T14:39:12.942Z,14.39
2023-04-08T14:41:42.530Z,14.66
2023-04-08T14:44:16.512Z,14.62
2023-04-08T14:46:47.452Z,14.51
2023-04-08T14:49:17.610Z,13.73
2023-04-08T14:51:48.109Z,13.26
2023-04-08T14:54:18.527Z,13.63
2023-04-08T14:56:49.229Z,12.29
2023-04-08T14:59:19.583Z,13.22
2023-04-08T15:01:56.359Z,13.19
2023-04-08T15:04:26.547Z,13.16
2023-04-08T15:06:56.755Z,13.60
2023-04-08T15:09:27.436Z,13.74
2023-04-08T15:11:58.056Z,13.58
2023-04-08T15:14:28.502Z,13.44
2023-04-08T15:16:59.371Z,13.38
2023-04-08T15:19:31.830Z,12.09
2023-04-08T15:22:02.692Z,13.67
2023-04-08T15:24:33.051Z,13.39
2023-04-08T15:27:06.297Z,12.57
2023-04-08T15:29:37.266Z,13.11
2023-04-08T15:32:08.090Z,12.93
2023-04-08T15:34:38.872Z,12.21
2023-04-08T15:37:10.305Z,12.42
2023-04-08T15:39:41.396Z,11.53
2023-04-08T15:42:12.523Z,12.40
2023-04-08T15:44:46.189Z,12.36
2023-04-08T15:47:17.381Z,13.01
2023-04-08T15:49:48.102Z,11.98
2023-04-08T15:52:18.717Z,12.61
2023-04-08T15:54:49.296Z,12.74
2023-04-08T15:57:25.715Z,12.86
2023-04-08T15:59:56.636Z,12.68
2023-04-08T16:02:29.118Z,12.69
2023-04-08T16:04:59.335Z,12.63
2023-04-08T16:07:30.640Z,13.04
2023-04-08T16:10:05.810Z,12.39
2023-04-08T16:12:35.621Z,12.41
2023-04-08T16:15:06.137Z,12.40
2023-04-08T16:17:36.467Z,12.75
2023-04-08T16:20:07.558Z,12.95
2023-04-08T16:22:37.378Z,12.91
2023-04-08T16:25:08.701Z,12.86
2023-04-08T16:27:42.352Z,12.69
2023-04-08T16:30:13.192Z,12.21
2023-04-08T16:32:43.723Z,12.38
2023-04-08T16:35:14.745Z,12.72
2023-04-08T16:37:45.103Z,12.57
2023-04-08T16:40:15.696Z,12.29
2023-04-08T16:42:46.628Z,11.62
2023-04-08T16:45:20.488Z,12.48
2023-04-08T16:47:50.838Z,12.78
2023-04-08T16:50:21.637Z,12.17
2023-04-08T16:52:51.952Z,12.40
2023-04-08T16:55:22.181Z,12.53
2023-04-08T16:57:52.771Z,12.11
2023-04-08T17:00:23.915Z,12.12
2023-04-08T17:02:58.566Z,12.19
2023-04-08T17:05:28.494Z,12.24
2023-04-08T17:07:59.827Z,12.49
2023-04-08T17:10:30.586Z,12.57
2023-04-08T17:13:01.098Z,12.21
2023-04-08T17:15:34.872Z,12.57
2023-04-08T17:18:03.485Z,12.38
2023-04-08T17:20:36.804Z,11.43
2023-04-08T17:23:07.632Z,10.79
2023-04-08T17:25:37.771Z,11.83
2023-04-08T17:28:12.464Z,12.20
2023-04-08T17:30:44.315Z,12.24
2023-04-08T17:33:15.623Z,12.27
2023-04-08T17:35:46.508Z,11.55
2023-04-08T17:38:17.301Z,10.94
2023-04-08T17:40:47.863Z,11.26
2023-04-08T17:43:18.564Z,11.70
2023-04-08T17:45:52.478Z,11.38
2023-04-08T17:48:22.097Z,9.24
2023-04-08T17:51:03.196Z,10.81
2023-04-08T17:53:35.331Z,11.34
2023-04-08T17:56:01.417Z,11.52
2023-04-08T17:58:30.836Z,10.98
2023-04-08T18:01:01.656Z,11.21
2023-04-08T18:03:32.118Z,11.21
2023-04-08T18:06:02.796Z,10.53
2023-04-08T18:08:34.700Z,10.76
2023-04-08T18:11:12.713Z,10.81
2023-04-08T18:13:45.269Z,10.64
2023-04-08T18:16:16.580Z,11.40
2023-04-08T18:18:49.780Z,11.18
2023-04-08T18:21:22.312Z,10.93
2023-04-08T18:23:52.806Z,6.86
2023-04-08T18:26:23.364Z,10.81
2023-04-08T18:28:53.924Z,10.62
2023-04-08T18:31:24.892Z,11.29
2023-04-08T18:33:55.533Z,11.09
2023-04-08T18:36:31.107Z,10.57
2023-04-08T18:39:02.188Z,10.84
2023-04-08T18:41:32.239Z,10.91
2023-04-08T18:44:06.778Z,10.89
2023-04-08T18:46:38.175Z,11.44
2023-04-08T18:49:08.703Z,11.58
2023-04-08T18:51:42.162Z,11.61
2023-04-08T18:54:12.566Z,11.84
2023-04-08T18:56:45.180Z,11.41
2023-04-08T18:59:15.794Z,11.54
2023-04-08T19:01:48.551Z,11.61
2023-04-08T19:04:19.338Z,11.94
2023-04-08T19:06:49.940Z,11.76
2023-04-08T19:09:23.829Z,11.75
2023-04-08T19:11:56.687Z,12.09
2023-04-08T19:14:27.127Z,12.26
2023-04-08T19:16:57.185Z,12.17
2023-04-08T19:19:27.834Z,12.35
2023-04-08T19:22:00.057Z,12.16
2023-04-08T19:24:31.672Z,12.30
2023-04-08T19:27:07.417Z,12.26
2023-04-08T19:29:37.764Z,11.95
2023-04-08T19:32:08.081Z,11.69
2023-04-08T19:34:41.622Z,12.00
2023-04-08T19:37:12.998Z,12.18
2023-04-08T19:39:43.519Z,11.79
2023-04-08T19:42:14.754Z,12.08
2023-04-08T19:44:48.830Z,12.24
2023-04-08T19:47:17.008Z,12.24
2023-04-08T19:49:47.518Z,11.26
2023-04-08T19:52:21.388Z,12.09
2023-04-08T19:54:52.558Z,10.89
2023-04-08T19:57:23.663Z,12.11
2023-04-08T19:59:53.908Z,12.18
2023-04-08T20:02:24.572Z,12.23
2023-04-08T20:04:54.408Z,12.16
2023-04-08T20:07:25.140Z,11.95
2023-04-08T20:09:59.751Z,11.90
2023-04-08T20:12:32.536Z,11.66
2023-04-08T20:15:03.440Z,12.18
2023-04-08T20:17:33.157Z,12.16
2023-04-08T20:20:04.918Z,11.90
2023-04-08T20:22:35.069Z,11.78
2023-04-08T20:25:05.938Z,11.84
2023-04-08T20:27:40.606Z,11.23
2023-04-08T20:30:11.440Z,11.76
2023-04-08T20:32:41.109Z,11.82
2023-04-08T20:35:12.639Z,11.72
2023-04-08T20:37:43.021Z,11.86
2023-04-08T20:40:14.995Z,11.62
2023-04-08T20:42:45.025Z,11.74
2023-04-08T20:45:18.507Z,11.59
2023-04-08T20:47:49.178Z,11.31
2023-04-08T20:50:19.516Z,11.77
2023-04-08T20:52:53.077Z,11.65
2023-04-08T20:55:24.352Z,11.57
2023-04-08T20:57:55.608Z,11.63
2023-04-08T21:00:25.839Z,11.83
2023-04-08T21:02:57.164Z,11.85
2023-04-08T21:05:27.278Z,11.90
2023-04-08T21:07:57.829Z,11.65
2023-04-08T21:10:31.866Z,11.84
2023-04-08T21:13:03.924Z,11.85
2023-04-08T21:15:34.586Z,11.58
2023-04-08T21:18:05.883Z,11.80
2023-04-08T21:20:38.608Z,11.77
2023-04-08T21:23:06.891Z,11.83
2023-04-08T21:25:37.527Z,10.19
2023-04-08T21:28:12.479Z,9.85
2023-04-08T21:30:43.386Z,10.17
2023-04-08T21:33:13.818Z,10.65
2023-04-08T21:35:46.825Z,11.76
2023-04-08T21:38:18.380Z,11.72
2023-04-08T21:40:49.222Z,11.60
2023-04-08T21:43:19.712Z,11.50
2023-04-08T21:45:52.820Z,10.10
2023-04-08T21:48:21.336Z,11.57
2023-04-08T21:50:53.099Z,11.70
2023-04-08T21:53:27.020Z,11.72
2023-04-08T21:55:58.091Z,11.52
2023-04-08T21:58:28.751Z,11.50
2023-04-08T22:00:59.601Z,11.46
2023-04-08T22:03:30.291Z,11.61
2023-04-08T22:06:00.617Z,11.51
2023-04-08T22:08:32.082Z,11.18
2023-04-08T22:11:10.401Z,11.00
2023-04-08T22:13:36.582Z,11.23
2023-04-08T22:16:07.104Z,11.38
2023-04-08T22:18:37.437Z,11.40
2023-04-08T22:21:08.188Z,11.29
2023-04-08T22:23:40.011Z,10.96
2023-04-08T22:26:10.592Z,10.22
2023-04-08T22:28:43.381Z,11.09
2023-04-08T22:31:14.147Z,11.06
2023-04-08T22:33:45.508Z,10.89
2023-04-08T22:36:19.689Z,11.24
2023-04-08T22:38:51.383Z,11.28
2023-04-08T22:41:22.788Z,11.34
2023-04-08T22:43:52.855Z,11.33
2023-04-08T22:46:24.230Z,11.24
2023-04-08T22:48:54.731Z,11.32
2023-04-08T22:51:25.469Z,11.35
2023-04-08T22:54:00.468Z,11.12
2023-04-08T22:56:30.397Z,10.63
2023-04-08T22:59:00.661Z,11.27
2023-04-08T23:01:35.197Z,11.06
2023-04-08T23:04:05.371Z,11.10
2023-04-08T23:06:35.949Z,11.22
2023-04-08T23:09:06.329Z,11.22
2023-04-08T23:11:37.145Z,11.21
2023-04-08T23:14:07.159Z,11.07
2023-04-08T23:16:38.209Z,11.14
2023-04-08T23:19:12.223Z,11.27
2023-04-08T23:21:42.675Z,11.15
2023-04-08T23:24:13.600Z,11.26
2023-04-08T23:26:44.173Z,11.32
2023-04-08T23:29:15.322Z,11.12
2023-04-08T23:31:45.847Z,11.16
2023-04-08T23:34:16.763Z,10.96
2023-04-08T23:36:50.097Z,10.28
2023-04-08T23:39:22.137Z,11.02
2023-04-08T23:41:52.417Z,11.11
2023-04-08T23:44:23.106Z,11.03
2023-04-08T23:46:53.987Z,11.11
2023-04-08T23:49:25.105Z,10.96
2023-04-08T23:51:55.572Z,10.98
2023-04-08T23:54:32.964Z,10.62
2023-04-08T23:57:01.072Z,10.61
2023-04-08T23:59:31.140Z,10.87
